Time;durP1;ratioP1;P1;durP2;ratioP2;P2;SDS_P1;SDS_P2;PMS_P1;PMS_P2;Temp;Humidity;BMP_temperature;BMP_pressure;BME280_temperature;BME280_humidity;BME280_pressure;Samples;Min_cycle;Max_cycle;Signal;HPM_P1;HPM_P2
2023/07/14 00:01:57;;;;;;;7.15;4.60;;;14.40;88.00;;;;;;5052396;28;20033;-47
2023/07/14 00:04:35;;;;;;;6.00;4.32;;;14.40;88.20;;;;;;5045139;28;20044;-49
2023/07/14 00:07:09;;;;;;;6.10;4.47;;;14.40;88.10;;;;;;5050563;28;20029;-47
2023/07/14 00:09:36;;;;;;;9.38;4.35;;;14.30;88.10;;;;;;5052690;28;20036;-47
2023/07/14 00:12:02;;;;;;;6.35;4.38;;;14.40;88.20;;;;;;5034814;28;20470;-45
2023/07/14 00:14:33;;;;;;;8.48;5.22;;;14.30;88.20;;;;;;5034388;28;20028;-44
2023/07/14 00:17:00;;;;;;;6.25;4.60;;;14.30;88.20;;;;;;5052346;28;20025;-47
2023/07/14 00:19:26;;;;;;;7.47;5.72;;;14.30;88.40;;;;;;5049399;28;20068;-48
2023/07/14 00:21:53;;;;;;;7.05;5.35;;;14.30;88.50;;;;;;5070117;28;20025;-47
2023/07/14 00:24:23;;;;;;;13.02;5.60;;;14.30;88.70;;;;;;5072250;28;20059;-46
2023/07/14 00:26:57;;;;;;;12.57;5.75;;;14.30;88.60;;;;;;5066502;28;20040;-45
2023/07/14 00:29:26;;;;;;;7.07;5.53;;;14.30;88.70;;;;;;5054081;28;20029;-45
2023/07/14 00:31:52;;;;;;;12.88;6.55;;;14.20;88.70;;;;;;5063072;28;20596;-48
2023/07/14 00:34:18;;;;;;;8.43;5.97;;;14.20;88.90;;;;;;5052615;28;20043;-47
2023/07/14 00:36:45;;;;;;;16.67;6.72;;;14.20;88.90;;;;;;5070663;28;20039;-46
2023/07/14 00:39:12;;;;;;;6.50;5.82;;;14.20;89.10;;;;;;5066946;28;20024;-46
2023/07/14 00:41:41;;;;;;;7.72;5.60;;;14.30;89.00;;;;;;5069557;28;20119;-44
2023/07/14 00:44:17;;;;;;;6.87;5.70;;;14.30;89.00;;;;;;5067232;28;20032;-45
2023/07/14 00:46:45;;;;;;;9.30;5.38;;;14.20;89.00;;;;;;5069885;28;20305;-45
2023/07/14 00:49:25;;;;;;;8.50;5.50;;;14.30;89.10;;;;;;5053533;28;20060;-45
2023/07/14 00:51:53;;;;;;;8.98;6.25;;;14.30;89.00;;;;;;5068796;28;20032;-44
2023/07/14 00:54:28;;;;;;;8.82;6.13;;;14.30;89.10;;;;;;5072705;28;20036;-44
2023/07/14 00:56:58;;;;;;;6.75;5.35;;;14.30;89.00;;;;;;5064933;28;20036;-44
2023/07/14 00:59:33;;;;;;;10.93;5.82;;;14.30;88.90;;;;;;5070241;28;20029;-45
2023/07/14 01:02:22;;;;;;;7.07;6.38;;;14.20;88.80;;;;;;5071131;28;20036;-45
2023/07/14 01:04:52;;;;;;;8.67;6.07;;;14.30;89.00;;;;;;5048305;28;20057;-44
2023/07/14 01:07:26;;;;;;;8.10;5.28;;;14.20;88.90;;;;;;5054767;28;20393;-46
2023/07/14 01:09:58;;;;;;;7.93;6.82;;;14.20;89.00;;;;;;5069613;28;20024;-47
2023/07/14 01:12:26;;;;;;;8.57;6.68;;;14.20;88.90;;;;;;5060282;28;20450;-44
2023/07/14 01:14:55;;;;;;;14.63;6.47;;;14.20;89.00;;;;;;5058093;28;20020;-44
2023/07/14 01:17:22;;;;;;;8.87;6.83;;;14.20;89.10;;;;;;5053499;28;20029;-44
2023/07/14 01:19:59;;;;;;;8.57;6.50;;;14.20;89.10;;;;;;5069172;28;20643;-44
2023/07/14 01:22:26;;;;;;;8.05;6.85;;;14.10;89.20;;;;;;5072397;28;20033;-45
2023/07/14 01:25:22;;;;;;;10.82;7.60;;;14.10;89.30;;;;;;5054575;28;20058;-43
2023/07/14 01:27:48;;;;;;;9.15;6.82;;;14.10;89.40;;;;;;5064334;28;20065;-45
2023/07/14 01:30:17;;;;;;;13.45;7.15;;;14.10;89.40;;;;;;5062857;28;20037;-43
2023/07/14 01:32:46;;;;;;;10.48;7.40;;;14.00;89.40;;;;;;5063001;28;20028;-44
2023/07/14 01:35:16;;;;;;;9.55;7.03;;;14.10;89.70;;;;;;5071144;28;20111;-45
2023/07/14 01:37:43;;;;;;;;;;;14.10;89.70;;;;;;5034715;28;20043;-44
2023/07/14 01:40:18;;;;;;;8.90;6.90;;;14.10;89.80;;;;;;5064954;28;19965;-44
2023/07/14 01:42:57;;;;;;;8.63;7.65;;;14.10;89.80;;;;;;5060847;28;20772;-44
2023/07/14 01:45:26;;;;;;;11.45;8.23;;;14.10;89.80;;;;;;5062647;28;20032;-44
2023/07/14 01:47:57;;;;;;;9.07;7.70;;;14.10;89.80;;;;;;5072272;28;20489;-43
2023/07/14 01:50:37;;;;;;;10.65;8.00;;;14.10;89.70;;;;;;5070570;28;20028;-44
2023/07/14 01:53:12;;;;;;;9.02;7.38;;;14.10;89.60;;;;;;5038630;28;20029;-43
2023/07/14 01:55:45;;;;;;;9.88;8.15;;;14.10;89.70;;;;;;5068655;28;20505;-44
2023/07/14 01:58:26;;;;;;;9.75;8.20;;;14.00;89.70;;;;;;5070115;28;20041;-44
2023/07/14 02:00:53;;;;;;;10.40;8.88;;;14.10;89.80;;;;;;5073851;28;20083;-47
2023/07/14 02:03:36;;;;;;;10.70;7.45;;;14.10;89.80;;;;;;5073916;28;20747;-43
2023/07/14 02:06:04;;;;;;;11.77;7.53;;;14.00;89.70;;;;;;5053951;28;20040;-43
2023/07/14 02:08:31;;;;;;;10.40;8.05;;;14.00;89.80;;;;;;5064023;28;20434;-44
2023/07/14 02:11:00;;;;;;;13.35;8.57;;;14.00;89.90;;;;;;5074296;28;20123;-43
2023/07/14 02:13:26;;;;;;;8.57;6.93;;;14.00;89.90;;;;;;5057833;28;20025;-44
2023/07/14 02:15:54;;;;;;;9.80;7.97;;;14.00;90.00;;;;;;5067520;28;20362;-43
2023/07/14 02:18:25;;;;;;;12.25;7.70;;;14.00;90.00;;;;;;5073242;28;20077;-44
2023/07/14 02:20:56;;;;;;;10.50;7.53;;;14.00;90.10;;;;;;5035955;28;20049;-44
2023/07/14 02:23:26;;;;;;;9.05;7.80;;;14.00;90.10;;;;;;5034259;28;20083;-43
2023/07/14 02:26:29;;;;;;;12.98;8.88;;;14.00;90.10;;;;;;5042808;28;20041;-44
2023/07/14 02:28:57;;;;;;;9.80;7.90;;;14.00;90.20;;;;;;5053946;28;20488;-43
2023/07/14 02:31:47;;;;;;;8.85;7.72;;;14.00;90.20;;;;;;5051529;28;20029;-43
2023/07/14 02:34:16;;;;;;;10.15;7.85;;;14.00;90.20;;;;;;5042783;28;20026;-44
2023/07/14 02:37:04;;;;;;;10.50;8.43;;;14.00;90.20;;;;;;5034624;28;20032;-43
2023/07/14 02:39:36;;;;;;;10.95;8.43;;;14.00;90.10;;;;;;5052347;28;20033;-44
2023/07/14 02:42:04;;;;;;;9.27;7.57;;;14.00;90.20;;;;;;5054108;28;20312;-43
2023/07/14 02:44:37;;;;;;;8.07;7.18;;;13.90;90.10;;;;;;5050925;28;20133;-44
2023/07/14 02:47:17;;;;;;;9.88;8.18;;;13.90;90.20;;;;;;5053505;28;20090;-43
2023/07/14 02:49:48;;;;;;;8.68;7.22;;;13.90;90.20;;;;;;5054354;28;20087;-44
2023/07/14 02:52:17;;;;;;;10.25;8.13;;;13.90;90.30;;;;;;5048038;28;20021;-44
2023/07/14 02:54:44;;;;;;;7.70;6.95;;;14.00;90.40;;;;;;5051227;28;20124;-46
2023/07/14 02:57:12;;;;;;;11.13;8.38;;;14.00;90.40;;;;;;5043955;28;20713;-43
2023/07/14 02:59:39;;;;;;;12.57;8.70;;;14.00;90.50;;;;;;5032095;28;20049;-46
2023/07/14 03:02:06;;;;;;;11.38;8.25;;;14.00;90.40;;;;;;5038541;28;20825;-43
2023/07/14 03:04:34;;;;;;;9.07;8.05;;;14.00;90.60;;;;;;5035804;28;20022;-44
2023/07/14 03:07:02;;;;;;;10.77;8.85;;;14.00;90.60;;;;;;5045529;28;20026;-43
2023/07/14 03:09:29;;;;;;;9.30;8.30;;;14.00;90.50;;;;;;5050203;28;20067;-43
2023/07/14 03:11:58;;;;;;;11.73;9.90;;;14.10;90.50;;;;;;5053849;28;20017;-44
2023/07/14 03:14:24;;;;;;;16.67;10.07;;;14.00;90.40;;;;;;5053195;28;20021;-45
2023/07/14 03:16:51;;;;;;;13.90;7.57;;;14.00;90.60;;;;;;5035618;28;20480;-42
2023/07/14 03:19:17;;;;;;;9.75;8.77;;;14.00;90.60;;;;;;5059830;28;20477;-43
2023/07/14 03:21:46;;;;;;;21.58;8.68;;;14.00;90.70;;;;;;5072085;28;20094;-42
2023/07/14 03:24:13;;;;;;;13.45;8.10;;;14.00;90.70;;;;;;5055403;28;20037;-44
2023/07/14 03:26:40;;;;;;;12.32;7.97;;;14.00;90.90;;;;;;5062915;28;20068;-47
2023/07/14 03:29:07;;;;;;;10.40;8.20;;;14.00;90.90;;;;;;5071001;28;20028;-43
2023/07/14 03:31:33;;;;;;;8.90;8.00;;;14.10;91.00;;;;;;5065418;28;20040;-44
2023/07/14 03:34:00;;;;;;;9.95;8.77;;;14.10;91.00;;;;;;5060322;28;20025;-43
2023/07/14 03:36:27;;;;;;;10.57;8.30;;;14.10;91.10;;;;;;5055393;28;20112;-43
2023/07/14 03:39:30;;;;;;;11.70;8.52;;;14.20;91.10;;;;;;5053671;28;20025;-43
2023/07/14 03:41:57;;;;;;;10.43;8.93;;;14.20;91.00;;;;;;5031749;28;20033;-44
2023/07/14 03:44:25;;;;;;;11.05;9.15;;;14.20;91.10;;;;;;4995866;28;20041;-43
2023/07/14 03:46:53;;;;;;;18.80;10.60;;;14.20;91.00;;;;;;5010924;28;20037;-45
2023/07/14 03:49:19;;;;;;;11.50;9.50;;;14.30;91.10;;;;;;5012034;28;20479;-43
2023/07/14 03:51:47;;;;;;;10.63;9.57;;;14.30;91.10;;;;;;5019722;28;20359;-44
2023/07/14 03:54:14;;;;;;;9.45;8.38;;;14.30;91.10;;;;;;5007678;28;20030;-44
2023/07/14 03:56:42;;;;;;;15.80;10.13;;;14.30;91.10;;;;;;4998712;28;20030;-46
2023/07/14 03:59:08;;;;;;;14.77;9.02;;;14.30;91.20;;;;;;5011835;28;20026;-43
2023/07/14 04:01:35;;;;;;;11.80;9.35;;;14.40;91.20;;;;;;4993987;28;20026;-43
2023/07/14 04:04:01;;;;;;;10.02;8.98;;;14.40;91.10;;;;;;5010365;28;20069;-42
2023/07/14 04:06:28;;;;;;;11.73;9.88;;;14.40;91.00;;;;;;5001948;28;20510;-45
2023/07/14 04:08:59;;;;;;;13.52;9.88;;;14.40;91.00;;;;;;4996560;28;20062;-43
2023/07/14 04:11:24;;;;;;;12.05;9.45;;;14.40;91.10;;;;;;5008946;28;20435;-43
2023/07/14 04:13:50;;;;;;;11.48;9.50;;;14.40;91.00;;;;;;5011490;28;20061;-43
2023/07/14 04:16:18;;;;;;;12.90;8.90;;;14.40;91.00;;;;;;5051603;28;20033;-43
2023/07/14 04:18:44;;;;;;;15.57;9.80;;;14.40;91.00;;;;;;5072003;28;20082;-43
2023/07/14 04:21:13;;;;;;;13.95;10.25;;;14.40;91.00;;;;;;5072907;28;20445;-43
2023/07/14 04:23:41;;;;;;;18.73;11.10;;;14.40;90.90;;;;;;5071351;28;20052;-44
2023/07/14 04:26:08;;;;;;;13.18;10.02;;;14.40;90.80;;;;;;5073047;28;20029;-42
2023/07/14 04:28:35;;;;;;;10.55;9.45;;;14.40;91.00;;;;;;5072910;28;20565;-43
2023/07/14 04:31:06;;;;;;;15.70;9.45;;;14.40;91.00;;;;;;5066019;28;20024;-44
2023/07/14 04:33:33;;;;;;;16.13;10.93;;;14.40;91.00;;;;;;5071888;28;20100;-46
2023/07/14 04:36:00;;;;;;;14.10;9.90;;;14.40;90.90;;;;;;5053561;28;20028;-44
2023/07/14 04:38:29;;;;;;;11.77;10.50;;;14.40;90.90;;;;;;5072709;28;20024;-43
2023/07/14 04:40:56;;;;;;;11.63;9.40;;;14.40;91.00;;;;;;5072101;28;20035;-43
2023/07/14 04:43:23;;;;;;;9.82;8.88;;;14.40;90.90;;;;;;5070552;28;20039;-44
2023/07/14 04:45:51;;;;;;;14.27;9.57;;;14.40;91.00;;;;;;5068698;28;20036;-44
2023/07/14 04:48:22;;;;;;;13.07;9.98;;;14.40;90.90;;;;;;5055616;28;20455;-43
2023/07/14 04:50:48;;;;;;;11.82;10.68;;;14.40;90.90;;;;;;5054244;28;20052;-43
2023/07/14 04:53:16;;;;;;;10.73;9.63;;;14.50;90.90;;;;;;5071145;28;20059;-43
2023/07/14 04:55:45;;;;;;;14.02;12.00;;;14.50;90.90;;;;;;5072610;28;20108;-45
2023/07/14 04:58:14;;;;;;;15.48;11.60;;;14.50;90.90;;;;;;5071334;28;20086;-43
2023/07/14 05:00:44;;;;;;;18.13;12.88;;;14.60;90.80;;;;;;5071272;28;20033;-45
2023/07/14 05:03:11;;;;;;;12.77;11.27;;;14.60;90.80;;;;;;5061851;28;20036;-44
2023/07/14 05:05:40;;;;;;;16.85;11.82;;;14.60;90.70;;;;;;5071766;28;20451;-44
2023/07/14 05:08:08;;;;;;;16.25;11.85;;;14.70;90.80;;;;;;5072525;28;20025;-43
2023/07/14 05:10:38;;;;;;;15.90;11.90;;;14.70;90.80;;;;;;5071482;28;20457;-45
2023/07/14 05:13:07;;;;;;;13.63;11.82;;;14.80;90.90;;;;;;5069730;28;20030;-44
2023/07/14 05:15:34;;;;;;;15.05;12.25;;;14.80;91.00;;;;;;5068938;28;20044;-43
2023/07/14 05:18:03;;;;;;;13.13;11.75;;;14.90;91.00;;;;;;5071075;28;20039;-44
2023/07/14 05:20:30;;;;;;;14.95;12.93;;;15.00;91.10;;;;;;5073658;28;20052;-46
2023/07/14 05:22:56;;;;;;;18.77;14.25;;;15.00;90.90;;;;;;5072682;28;20060;-43
2023/07/14 05:25:23;;;;;;;25.55;13.13;;;15.10;90.80;;;;;;5069542;28;20511;-44
2023/07/14 05:27:50;;;;;;;16.60;13.90;;;15.10;90.90;;;;;;5076222;28;20025;-49
2023/07/14 05:30:20;;;;;;;14.05;12.07;;;15.20;90.80;;;;;;5074050;28;20075;-46
2023/07/14 05:32:47;;;;;;;12.55;10.70;;;15.30;90.80;;;;;;5073413;28;20032;-43
2023/07/14 05:35:14;;;;;;;16.02;13.80;;;15.40;90.90;;;;;;5074809;28;20032;-46
2023/07/14 05:37:45;;;;;;;14.15;12.75;;;15.40;90.70;;;;;;5040090;28;20029;-44
2023/07/14 05:40:13;;;;;;;13.52;12.13;;;15.50;90.60;;;;;;5065340;28;20419;-47
2023/07/14 05:42:43;;;;;;;15.63;11.93;;;15.50;90.50;;;;;;5074907;28;20024;-46
2023/07/14 05:45:14;;;;;;;13.43;11.45;;;15.60;90.70;;;;;;5072071;28;20461;-44
2023/07/14 05:47:46;;;;;;;16.52;12.35;;;15.70;90.70;;;;;;5073731;28;20048;-43
2023/07/14 05:50:12;;;;;;;16.40;13.10;;;15.80;90.60;;;;;;5074533;28;20551;-44
2023/07/14 05:52:39;;;;;;;15.27;13.77;;;15.90;90.50;;;;;;5073227;28;20028;-45
2023/07/14 05:55:06;;;;;;;16.92;13.82;;;15.90;90.30;;;;;;5072494;28;20078;-45
2023/07/14 05:57:36;;;;;;;17.38;14.38;;;15.90;90.10;;;;;;5070759;28;20025;-50
2023/07/14 06:00:06;;;;;;;15.50;14.00;;;16.10;90.30;;;;;;5066088;28;20028;-48
2023/07/14 06:02:33;;;;;;;14.88;12.48;;;16.20;89.80;;;;;;5074239;28;20443;-47
2023/07/14 06:05:00;;;;;;;16.25;13.15;;;16.40;89.90;;;;;;5073316;28;20036;-49
2023/07/14 06:07:31;;;;;;;14.95;13.23;;;16.40;89.30;;;;;;5065892;28;20447;-46
2023/07/14 06:09:58;;;;;;;16.63;13.20;;;16.50;88.90;;;;;;5064260;28;20032;-46
2023/07/14 06:12:25;;;;;;;15.57;12.10;;;16.60;88.80;;;;;;5074183;28;20029;-47
2023/07/14 06:14:53;;;;;;;21.17;12.45;;;16.70;88.90;;;;;;5072197;28;20048;-47
2023/07/14 06:17:20;;;;;;;14.35;13.00;;;16.80;88.70;;;;;;5073826;28;20028;-45
2023/07/14 06:19:46;;;;;;;13.98;12.60;;;16.90;88.50;;;;;;5075242;28;20053;-46
2023/07/14 06:22:13;;;;;;;15.15;13.55;;;17.00;87.90;;;;;;5057492;28;20033;-46
2023/07/14 06:24:43;;;;;;;18.50;12.45;;;16.90;87.60;;;;;;5064906;28;20438;-47
2023/07/14 06:27:09;;;;;;;14.57;11.02;;;17.00;87.50;;;;;;5073250;28;20097;-47
2023/07/14 06:29:36;;;;;;;12.82;9.98;;;17.20;87.30;;;;;;5072419;28;20047;-46
2023/07/14 06:32:02;;;;;;;13.02;10.25;;;17.30;87.20;;;;;;5070921;28;20066;-47
2023/07/14 06:34:29;;;;;;;13.90;10.35;;;17.40;86.50;;;;;;5072715;28;20358;-52
2023/07/14 06:36:58;;;;;;;10.23;8.50;;;17.40;85.80;;;;;;5067950;28;20020;-48
2023/07/14 06:39:25;;;;;;;11.48;7.82;;;17.50;85.30;;;;;;5067432;28;20483;-49
2023/07/14 06:41:53;;;;;;;12.60;8.43;;;17.60;85.10;;;;;;5075873;28;20036;-46
2023/07/14 06:44:19;;;;;;;10.73;8.80;;;17.70;84.80;;;;;;5056521;28;20037;-47
2023/07/14 06:46:46;;;;;;;9.80;7.28;;;17.80;84.60;;;;;;5072472;28;20103;-48
2023/07/14 06:49:15;;;;;;;10.43;7.15;;;17.90;84.10;;;;;;5072501;28;20104;-48
2023/07/14 06:51:41;;;;;;;19.30;11.13;;;18.00;84.40;;;;;;5069879;28;20025;-49
2023/07/14 06:54:08;;;;;;;10.35;7.65;;;18.00;83.30;;;;;;5069465;28;20033;-48
2023/07/14 06:56:36;;;;;;;12.38;7.70;;;18.10;83.60;;;;;;5047439;28;20070;-47
2023/07/14 06:59:03;;;;;;;9.38;7.25;;;18.10;83.30;;;;;;5070728;28;20624;-49
2023/07/14 07:01:30;;;;;;;12.15;8.50;;;18.10;83.70;;;;;;5070402;28;20048;-50
2023/07/14 07:03:58;;;;;;;13.95;8.55;;;18.20;83.40;;;;;;5073025;28;20024;-53
2023/07/14 07:06:25;;;;;;;11.98;7.55;;;18.30;83.50;;;;;;5068642;28;20480;-49
2023/07/14 07:08:51;;;;;;;10.45;6.82;;;18.30;83.30;;;;;;5074206;28;20040;-50
2023/07/14 07:11:18;;;;;;;12.10;6.13;;;18.40;83.60;;;;;;5054369;28;20457;-48
2023/07/14 07:13:45;;;;;;;7.35;5.05;;;18.40;82.40;;;;;;5066014;28;20037;-51
2023/07/14 07:16:12;;;;;;;7.93;5.00;;;18.50;82.30;;;;;;5053712;28;20073;-49
2023/07/14 07:18:37;;;;;;;9.73;6.13;;;18.70;82.50;;;;;;5052607;28;20189;-50
2023/07/14 07:21:05;;;;;;;16.13;7.50;;;18.70;82.00;;;;;;5071146;28;20493;-51
2023/07/14 07:23:31;;;;;;;8.70;4.82;;;18.90;81.90;;;;;;5070911;28;20449;-53
2023/07/14 07:25:58;;;;;;;10.88;5.57;;;18.90;81.90;;;;;;5064165;28;20896;-51
2023/07/14 07:28:24;;;;;;;11.13;5.00;;;19.10;81.90;;;;;;5053542;28;20039;-51
2023/07/14 07:30:51;;;;;;;9.13;5.13;;;19.30;81.40;;;;;;5068132;28;20040;-52
2023/07/14 07:33:22;;;;;;;7.90;4.72;;;19.60;79.40;;;;;;5072132;28;20516;-54
2023/07/14 07:35:49;;;;;;;11.05;4.75;;;19.90;79.00;;;;;;5073128;28;20099;-53
2023/07/14 07:38:18;;;;;;;7.40;3.90;;;20.20;78.50;;;;;;5071111;28;20029;-52
2023/07/14 07:40:46;;;;;;;8.95;4.18;;;20.50;77.10;;;;;;5068284;28;20035;-49
2023/07/14 07:43:11;;;;;;;8.10;3.58;;;20.80;73.50;;;;;;5054049;28;20354;-52
2023/07/14 07:45:39;;;;;;;5.95;3.67;;;20.90;72.60;;;;;;5065819;28;20029;-50
2023/07/14 07:48:06;;;;;;;6.68;3.55;;;21.40;72.60;;;;;;5067458;28;20013;-52
2023/07/14 07:50:32;;;;;;;9.05;3.67;;;21.40;71.70;;;;;;5050925;28;20123;-51
2023/07/14 07:52:58;;;;;;;5.85;3.17;;;21.70;71.70;;;;;;5067095;28;20029;-53
2023/07/14 07:55:25;;;;;;;7.80;3.47;;;22.20;69.50;;;;;;5063936;28;20036;-52
2023/07/14 07:57:52;;;;;;;6.75;3.15;;;22.40;69.70;;;;;;5066977;28;20107;-51
2023/07/14 08:00:19;;;;;;;6.28;3.05;;;22.80;69.50;;;;;;5059011;28;20032;-55
2023/07/14 08:02:46;;;;;;;6.60;2.78;;;22.90;66.00;;;;;;5065773;28;20055;-51
2023/07/14 08:05:14;;;;;;;5.82;3.33;;;22.80;66.60;;;;;;5064717;28;20031;-51
2023/07/14 08:07:41;;;;;;;7.28;3.03;;;23.00;65.60;;;;;;5062012;28;20029;-49
2023/07/14 08:10:08;;;;;;;4.43;2.35;;;23.20;64.20;;;;;;5065280;28;20111;-47
2023/07/14 08:12:35;;;;;;;8.15;2.75;;;23.50;63.80;;;;;;5069356;28;20342;-49
2023/07/14 08:15:02;;;;;;;5.05;3.20;;;23.90;63.70;;;;;;5049859;28;20025;-49
2023/07/14 08:17:31;;;;;;;5.72;2.50;;;23.90;62.70;;;;;;5064493;28;20036;-47
2023/07/14 08:19:59;;;;;;;5.63;4.03;;;23.90;61.70;;;;;;5019262;28;1401024;-50
2023/07/14 08:22:28;;;;;;;5.38;2.53;;;23.90;62.10;;;;;;5068384;28;20565;-49
2023/07/14 08:24:57;;;;;;;5.70;2.70;;;23.90;61.50;;;;;;5066373;28;20060;-47
2023/07/14 08:27:24;;;;;;;9.00;3.15;;;24.10;64.40;;;;;;5068812;28;20801;-50
2023/07/14 08:29:53;;;;;;;4.75;3.13;;;24.20;60.40;;;;;;5064299;28;20449;-50
2023/07/14 08:32:21;;;;;;;8.18;3.10;;;24.50;59.70;;;;;;5050988;28;20024;-49
2023/07/14 08:34:46;;;;;;;9.57;3.17;;;24.40;58.90;;;;;;5046745;28;20040;-47
2023/07/14 08:37:14;;;;;;;5.10;3.17;;;24.30;58.40;;;;;;5065487;28;20025;-52
2023/07/14 08:39:41;;;;;;;8.23;2.90;;;24.20;59.20;;;;;;5045738;28;20024;-49
2023/07/14 08:42:35;;;;;;;6.90;3.65;;;24.60;61.40;;;;;;5066310;28;20516;-55
2023/07/14 08:45:07;;;;;;;7.53;3.47;;;24.50;58.00;;;;;;5059086;28;20048;-47
2023/07/14 08:47:50;;;;;;;8.93;3.33;;;24.70;59.30;;;;;;5063996;28;20029;-48
2023/07/14 08:50:22;;;;;;;5.13;2.67;;;24.70;60.90;;;;;;5065311;28;20029;-52
2023/07/14 08:52:51;;;;;;;4.70;2.75;;;24.50;58.20;;;;;;5045673;28;20025;-47
2023/07/14 08:55:27;;;;;;;5.55;2.95;;;24.80;57.60;;;;;;5068976;28;20039;-49
2023/07/14 08:58:12;;;;;;;5.45;2.58;;;24.60;60.50;;;;;;5063738;28;20093;-48
2023/07/14 09:00:49;;;;;;;6.55;2.75;;;24.90;58.10;;;;;;5064377;28;20032;-49
2023/07/14 09:03:27;;;;;;;6.85;2.72;;;24.90;58.60;;;;;;5069611;28;20043;-48
2023/07/14 09:05:58;;;;;;;5.20;2.42;;;24.80;57.40;;;;;;5063259;28;20119;-52
2023/07/14 09:08:27;;;;;;;5.40;3.17;;;24.60;58.50;;;;;;5067425;28;20550;-49
2023/07/14 09:11:30;;;;;;;6.20;2.88;;;24.30;59.70;;;;;;5049646;28;20098;-50
2023/07/14 09:14:14;;;;;;;7.40;2.88;;;23.50;59.50;;;;;;5063436;28;20082;-47
2023/07/14 09:16:58;;;;;;;4.45;2.50;;;22.90;61.10;;;;;;5067405;28;20024;-48
2023/07/14 09:20:01;;;;;;;7.05;3.22;;;22.80;63.00;;;;;;5043575;28;21408;-52
2023/07/14 09:22:52;;;;;;;4.78;3.05;;;22.70;63.20;;;;;;5048180;28;20028;-50
2023/07/14 09:25:45;;;;;;;7.32;3.13;;;22.50;64.20;;;;;;5042586;28;20033;-49
2023/07/14 09:28:20;;;;;;;6.55;3.53;;;22.60;64.90;;;;;;5047567;28;20028;-50
2023/07/14 09:30:49;;;;;;;5.43;3.75;;;22.40;64.30;;;;;;5047342;28;20477;-49
2023/07/14 09:33:18;;;;;;;8.25;3.78;;;22.60;64.50;;;;;;5049570;28;20407;-48
2023/07/14 09:35:47;;;;;;;;;;;23.10;65.70;;;;;;5050271;28;20017;-47
2023/07/14 09:38:26;;;;;;;5.63;3.28;;;23.80;63.20;;;;;;5048780;28;19975;-47
2023/07/14 09:40:59;;;;;;;8.43;3.08;;;23.90;60.20;;;;;;5049351;28;20033;-47
2023/07/14 09:43:27;;;;;;;7.20;3.55;;;24.20;60.10;;;;;;5042372;28;20029;-49
2023/07/14 09:45:54;;;;;;;9.60;2.67;;;24.20;58.30;;;;;;5046062;28;20092;-49
2023/07/14 09:48:30;;;;;;;5.97;2.85;;;24.30;61.50;;;;;;5040507;28;20435;-49
2023/07/14 09:51:20;;;;;;;6.60;3.67;;;24.30;60.10;;;;;;5047274;28;20059;-52
2023/07/14 09:54:10;;;;;;;7.47;3.83;;;23.80;61.10;;;;;;5048565;28;20021;-47
2023/07/14 09:56:43;;;;;;;7.03;3.28;;;23.80;60.60;;;;;;5038885;28;20069;-48
2023/07/14 09:59:21;;;;;;;6.88;3.40;;;23.60;59.90;;;;;;5038967;28;20032;-48
2023/07/14 10:01:58;;;;;;;8.20;4.40;;;24.10;59.90;;;;;;5045097;28;20530;-47
2023/07/14 10:04:31;;;;;;;6.55;3.05;;;24.20;58.50;;;;;;5051253;28;20025;-48
2023/07/14 10:07:24;;;;;;;5.78;3.33;;;24.50;58.50;;;;;;5042214;28;20115;-47
2023/07/14 10:10:12;;;;;;;8.32;3.45;;;24.00;58.40;;;;;;5051006;28;20033;-49
2023/07/14 10:12:47;;;;;;;6.32;3.03;;;23.90;59.90;;;;;;5043765;28;20033;-47
2023/07/14 10:15:32;;;;;;;7.22;3.35;;;24.10;60.80;;;;;;5051504;28;20099;-48
2023/07/14 10:18:19;;;;;;;5.50;3.22;;;24.40;61.60;;;;;;5041080;28;20039;-48
2023/07/14 10:21:06;;;;;;;6.38;2.90;;;24.40;58.30;;;;;;5068939;28;20123;-48
2023/07/14 10:23:33;;;;;;;6.63;3.13;;;23.90;59.20;;;;;;5068334;28;20109;-48
2023/07/14 10:26:05;;;;;;;5.60;3.28;;;23.40;59.50;;;;;;5070199;28;20059;-50
2023/07/14 10:28:37;;;;;;;6.82;3.42;;;22.90;61.60;;;;;;5068213;28;20040;-48
2023/07/14 10:31:27;;;;;;;6.78;2.78;;;22.50;62.80;;;;;;5069211;28;20044;-51
2023/07/14 10:34:07;;;;;;;5.43;3.15;;;22.20;64.20;;;;;;5068153;28;20096;-50
2023/07/14 10:36:37;;;;;;;;;;;21.90;64.20;;;;;;5065035;28;20090;-47
2023/07/14 10:39:13;;;;;;;5.93;2.90;;;21.80;65.90;;;;;;5041435;28;19944;-47
2023/07/14 10:41:45;;;;;;;4.78;3.00;;;21.80;66.10;;;;;;5067786;28;20094;-48
2023/07/14 10:44:34;;;;;;;6.00;3.75;;;22.00;67.90;;;;;;5067050;28;20087;-51
2023/07/14 10:47:09;;;;;;;9.68;4.25;;;22.00;66.70;;;;;;5051490;28;20028;-48
2023/07/14 10:49:41;;;;;;;6.43;3.58;;;22.10;66.40;;;;;;5071709;28;20048;-47
2023/07/14 10:52:26;;;;;;;6.70;3.55;;;22.00;66.80;;;;;;5073682;28;20449;-49
2023/07/14 10:55:13;;;;;;;4.75;3.03;;;21.90;67.60;;;;;;5054006;28;20028;-48
2023/07/14 10:57:56;;;;;;;8.45;4.95;;;21.70;68.60;;;;;;5066208;28;20036;-48
2023/07/14 11:00:43;;;;;;;6.35;3.30;;;21.50;68.80;;;;;;5067490;28;20029;-50
2023/07/14 11:03:22;;;;;;;7.60;4.28;;;21.90;69.70;;;;;;5070231;28;20339;-51
2023/07/14 11:06:08;;;;;;;8.35;4.72;;;22.10;67.80;;;;;;5069519;28;20033;-48
2023/07/14 11:08:36;;;;;;;5.18;3.50;;;21.80;66.40;;;;;;5070738;28;20044;-52
2023/07/14 11:11:36;;;;;;;6.25;4.15;;;21.80;67.20;;;;;;5067046;28;20032;-52
2023/07/14 11:14:20;;;;;;;;;;;21.80;65.60;;;;;;5064887;28;20040;-50
2023/07/14 11:17:14;;;;;;;4.78;3.53;;;21.60;66.80;;;;;;5067513;28;19916;-49
2023/07/14 11:19:48;;;;;;;5.32;3.97;;;21.70;67.40;;;;;;5062608;28;20055;-49
2023/07/14 11:22:52;;;;;;;6.28;3.13;;;21.50;65.90;;;;;;5054704;28;20111;-51
2023/07/14 11:25:33;;;;;;;8.40;4.07;;;21.60;66.20;;;;;;5070260;28;20023;-51
2023/07/14 11:28:27;;;;;;;5.20;3.90;;;21.90;67.10;;;;;;5056130;28;20839;-48
2023/07/14 11:30:58;;;;;;;5.93;4.65;;;22.20;66.70;;;;;;5054434;28;20041;-48
2023/07/14 11:33:49;;;;;;;6.38;4.15;;;22.20;65.10;;;;;;5069836;28;20020;-49
2023/07/14 11:36:29;;;;;;;7.05;3.83;;;22.00;65.80;;;;;;5069273;28;20052;-50
2023/07/14 11:39:16;;;;;;;6.93;3.67;;;22.00;66.60;;;;;;5051964;28;20472;-49
2023/07/14 11:41:44;;;;;;;7.25;4.20;;;21.70;66.10;;;;;;5052884;28;20028;-49
2023/07/14 11:44:17;;;;;;;7.28;4.13;;;21.60;66.60;;;;;;5068794;28;20089;-47
2023/07/14 11:46:44;;;;;;;7.68;4.03;;;21.50;66.90;;;;;;5057208;28;20028;-50
2023/07/14 11:49:42;;;;;;;5.97;4.18;;;21.40;67.10;;;;;;5078429;28;20028;-48
2023/07/14 11:52:12;;;;;;;5.32;3.30;;;21.40;67.60;;;;;;5065057;28;20075;-47
2023/07/14 11:55:27;;;;;;;5.93;4.30;;;21.40;68.70;;;;;;5070899;28;20029;-51
2023/07/14 11:58:20;;;;;;;5.57;3.75;;;21.40;68.00;;;;;;5066358;28;20056;-50
2023/07/14 12:01:03;;;;;;;5.45;3.72;;;21.40;68.70;;;;;;5047949;28;20029;-49
2023/07/14 12:03:47;;;;;;;6.47;4.60;;;21.50;68.70;;;;;;5067516;28;20119;-48
2023/07/14 12:06:42;;;;;;;5.95;3.80;;;21.70;67.70;;;;;;5069246;28;20033;-48
2023/07/14 12:09:14;;;;;;;6.78;4.40;;;21.90;67.80;;;;;;5061178;28;20031;-49
2023/07/14 12:11:42;;;;;;;6.40;3.85;;;22.30;65.80;;;;;;5069602;28;20446;-49
2023/07/14 12:14:36;;;;;;;6.53;3.80;;;22.40;65.80;;;;;;5051556;28;20027;-49
2023/07/14 12:17:24;;;;;;;5.47;3.13;;;22.70;64.00;;;;;;5067207;28;20033;-48
2023/07/14 12:19:53;;;;;;;7.75;3.33;;;22.80;63.10;;;;;;5057121;28;20055;-52
2023/07/14 12:22:40;;;;;;;6.25;2.70;;;22.60;63.00;;;;;;5068277;28;20047;-52
2023/07/14 12:25:19;;;;;;;4.32;2.65;;;22.60;62.80;;;;;;5067563;28;20111;-49
2023/07/14 12:27:51;;;;;;;4.55;2.72;;;22.40;63.70;;;;;;5067727;28;20040;-47
2023/07/14 12:30:22;;;;;;;4.88;2.95;;;22.30;63.10;;;;;;5066771;28;20040;-50
2023/07/14 12:32:53;;;;;;;6.53;3.30;;;22.30;63.80;;;;;;5069190;28;20078;-50
2023/07/14 12:35:25;;;;;;;4.97;2.88;;;22.20;64.30;;;;;;5047957;28;20032;-56
2023/07/14 12:37:52;;;;;;;4.80;3.42;;;22.10;64.90;;;;;;5054262;28;20047;-52
2023/07/14 12:40:24;;;;;;;7.18;2.70;;;22.10;64.80;;;;;;5053747;28;20123;-50
2023/07/14 12:42:52;;;;;;;4.97;2.95;;;22.00;65.20;;;;;;5072618;28;20020;-53
2023/07/14 12:45:20;;;;;;;5.45;3.55;;;22.10;66.00;;;;;;5063045;28;20086;-50
2023/07/14 12:47:51;;;;;;;5.00;2.72;;;22.00;65.50;;;;;;5069715;28;20083;-50
2023/07/14 12:50:25;;;;;;;4.80;2.50;;;21.90;64.20;;;;;;5063617;28;20021;-54
2023/07/14 12:52:53;;;;;;;4.60;2.92;;;21.90;65.10;;;;;;5063290;28;20377;-48
2023/07/14 12:55:25;;;;;;;5.40;2.97;;;21.90;66.20;;;;;;5068132;28;20036;-49
2023/07/14 12:57:52;;;;;;;4.88;3.15;;;21.90;66.40;;;;;;5071167;28;20059;-53
2023/07/14 13:00:19;;;;;;;3.80;2.60;;;21.90;66.10;;;;;;5070431;28;20037;-47
2023/07/14 13:02:47;;;;;;;5.03;3.20;;;21.90;66.10;;;;;;5054125;28;20043;-50
2023/07/14 13:05:15;;;;;;;5.05;3.35;;;22.00;67.20;;;;;;5054159;28;20044;-50
2023/07/14 13:07:46;;;;;;;4.78;2.90;;;21.90;64.60;;;;;;5068953;28;20086;-52
2023/07/14 13:10:28;;;;;;;5.03;2.97;;;21.90;65.40;;;;;;5056842;28;20061;-50